^^
B2 Weather Station Historical Data
Daily Summary for May 6, 2018 Units:  English    Metric   Both
Daily Weekly Monthly Yearly Custom
  High: Low: Average:
Temperature: 78.4 °F 46.7 °F 60.4 °F
Dew Point: 57.4 °F 41.3 °F 48 °F
Humidity: 86% 42% 65%
Wind Speed: 23.0mph 0.0mph 5.5mph
Wind Gust: 23.0mph - -
Wind- - ESE
Pressure: 30.13 in 29.91 in -
Precipitation: 0.00 in    
Historical Graphs
 
 
Tabular Data for May 6, 2018
Time Temperature Dew Point Pressure Wind Wind Speed Wind Gust Humidity Rainfall Rate (Hourly) solar
00:01 61.0 °F 48.3 °F 29.93 in Calm     63% 0.00 in 0.0 W/m2
00:06 60.5 °F 48.3 °F 29.93 in North 3.5 mph 3.5 mph 64% 0.00 in 0.0 W/m2
00:11 60.0 °F 48.2 °F 29.93 in North 4.0 mph 4.0 mph 65% 0.00 in 0.0 W/m2
00:16 59.3 °F 47.5 °F 29.93 in North 3.5 mph 3.5 mph 65% 0.00 in 0.0 W/m2
00:21 59.1 °F 47.3 °F 29.93 in Calm     65% 0.00 in 0.0 W/m2
00:26 58.5 °F 47.2 °F 29.93 in Calm     66% 0.00 in 0.0 W/m2
00:31 58.0 °F 47.1 °F 29.93 in Calm     67% 0.00 in 0.0 W/m2
00:36 57.1 °F 47.4 °F 29.93 in Calm     70% 0.00 in 0.0 W/m2
00:41 56.5 °F 47.6 °F 29.93 in Calm     72% 0.00 in 0.0 W/m2
00:46 56.0 °F 47.1 °F 29.93 in Calm     72% 0.00 in 0.0 W/m2
00:51 55.3 °F 47.2 °F 29.93 in Calm     74% 0.00 in 0.0 W/m2
00:56 54.7 °F 46.9 °F 29.93 in Calm     75% 0.00 in 0.0 W/m2
01:01 54.2 °F 46.8 °F 29.93 in Calm     76% 0.00 in 0.0 W/m2
01:06 54.0 °F 47.0 °F 29.93 in Calm     77% 0.00 in 0.0 W/m2
01:11 53.7 °F 46.3 °F 29.92 in Calm     76% 0.00 in 0.0 W/m2
01:12 53.6 °F 46.2 °F 29.92 in Calm     76% 0.00 in 0.0 W/m2
01:17 53.6 °F 46.2 °F 29.92 in Calm     76% 0.00 in 0.0 W/m2
01:22 53.5 °F 46.1 °F 29.92 in Calm     76% 0.00 in 0.0 W/m2
01:27 53.4 °F 46.0 °F 29.92 in Calm     76% 0.00 in 0.0 W/m2
01:32 53.7 °F 46.0 °F 29.92 in Calm     75% 0.00 in 0.0 W/m2
01:37 54.0 °F 45.9 °F 29.92 in Calm     74% 0.00 in 0.0 W/m2
01:42 54.3 °F 45.8 °F 29.92 in Calm     73% 0.00 in 0.0 W/m2
01:47 54.5 °F 45.7 °F 29.92 in Calm     72% 0.00 in 0.0 W/m2
01:52 54.7 °F 45.5 °F 29.92 in Calm     71% 0.00 in 0.0 W/m2
01:57 54.8 °F 45.6 °F 29.92 in Calm     71% 0.00 in 0.0 W/m2
02:02 54.9 °F 45.7 °F 29.92 in Calm     71% 0.00 in 0.0 W/m2
02:07 55.1 °F 45.5 °F 29.92 in Calm     70% 0.00 in 0.0 W/m2
02:12 55.6 °F 46.0 °F 29.92 in Calm     70% 0.00 in 0.0 W/m2
02:17 55.4 °F 45.8 °F 29.92 in Calm     70% 0.00 in 0.0 W/m2
02:22 54.9 °F 45.7 °F 29.92 in Calm     71% 0.00 in 0.0 W/m2
02:27 54.6 °F 45.4 °F 29.92 in Calm     71% 0.00 in 0.0 W/m2
02:32 54.6 °F 45.4 °F 29.92 in Calm     71% 0.00 in 0.0 W/m2
02:37 54.5 °F 45.3 °F 29.92 in Calm     71% 0.00 in 0.0 W/m2
02:42 54.5 °F 45.3 °F 29.92 in Calm     71% 0.00 in 0.0 W/m2
02:47 54.2 °F 45.4 °F 29.92 in Calm     72% 0.00 in 0.0 W/m2
02:52 54.1 °F 45.3 °F 29.92 in Calm     72% 0.00 in 0.0 W/m2
02:57 53.7 °F 45.2 °F 29.91 in Calm     73% 0.00 in 0.0 W/m2
03:02 53.7 °F 45.2 °F 29.92 in Calm     73% 0.00 in 0.0 W/m2
03:07 53.6 °F 45.2 °F 29.92 in Calm     73% 0.00 in 0.0 W/m2
03:12 53.5 °F 45.1 °F 29.92 in Calm     73% 0.00 in 0.0 W/m2
03:17 53.3 °F 44.9 °F 29.92 in Calm     73% 0.00 in 0.0 W/m2
03:23 53.3 °F 45.6 °F 29.92 in Calm     75% 0.00 in 0.0 W/m2
03:28 53.3 °F 45.6 °F 29.92 in Calm     75% 0.00 in 0.0 W/m2
03:33 53.3 °F 45.9 °F 29.92 in Calm     76% 0.00 in 0.0 W/m2
03:38 53.5 °F 45.8 °F 29.92 in Calm     75% 0.00 in 0.0 W/m2
03:43 53.6 °F 45.9 °F 29.91 in Calm     75% 0.00 in 0.0 W/m2
03:48 53.4 °F 45.7 °F 29.91 in Calm     75% 0.00 in 0.0 W/m2
03:53 53.3 °F 45.6 °F 29.91 in Calm     75% 0.00 in 0.0 W/m2
03:58 53.2 °F 45.5 °F 29.91 in Calm     75% 0.00 in 0.0 W/m2
04:03 53.2 °F 45.5 °F 29.91 in Calm     75% 0.00 in 0.0 W/m2
04:08 53.3 °F 45.2 °F 29.91 in Calm     74% 0.00 in 0.0 W/m2
04:13 53.2 °F 45.1 °F 29.91 in Calm     74% 0.00 in 0.0 W/m2
04:18 53.0 °F 44.9 °F 29.91 in Calm     74% 0.00 in 0.0 W/m2
04:23 53.0 °F 45.3 °F 29.92 in Calm     75% 0.00 in 0.0 W/m2
04:28 53.6 °F 45.2 °F 29.91 in Calm     73% 0.00 in 0.0 W/m2
04:33 54.2 °F 45.4 °F 29.91 in Calm     72% 0.00 in 0.0 W/m2
04:38 54.2 °F 45.4 °F 29.91 in Calm     72% 0.00 in 0.0 W/m2
04:43 53.7 °F 44.9 °F 29.91 in Calm     72% 0.00 in 0.0 W/m2
04:48 53.6 °F 45.2 °F 29.91 in Calm     73% 0.00 in 0.0 W/m2
04:53 53.5 °F 45.1 °F 29.91 in Calm     73% 0.00 in 0.0 W/m2
04:58 53.3 °F 45.2 °F 29.91 in Calm     74% 0.00 in 0.0 W/m2
05:03 53.1 °F 45.4 °F 29.91 in Calm     75% 0.00 in 0.0 W/m2
05:08 52.7 °F 45.3 °F 29.91 in Calm     76% 0.00 in 0.0 W/m2
05:13 52.3 °F 45.3 °F 29.91 in Calm     77% 0.00 in 0.0 W/m2
05:18 51.9 °F 45.3 °F 29.91 in Calm     78% 0.00 in 0.0 W/m2
05:23 51.5 °F 45.5 °F 29.91 in Calm     80% 0.00 in 0.0 W/m2
05:28 50.8 °F 44.9 °F 29.92 in Calm     80% 0.00 in 0.0 W/m2
05:33 50.2 °F 44.6 °F 29.92 in Calm     81% 0.00 in 0.0 W/m2
05:38 49.8 °F 44.5 °F 29.92 in Calm     82% 0.00 in 0.0 W/m2
05:43 49.3 °F 44.4 °F 29.92 in Calm     83% 0.00 in 0.0 W/m2
05:48 49.2 °F 44.9 °F 29.92 in Calm     85% 0.00 in 0.0 W/m2
05:53 49.9 °F 45.6 °F 29.92 in Calm     85% 0.00 in 5.0 W/m2
05:58 50.3 °F 45.6 °F 29.92 in Calm     84% 0.00 in 7.0 W/m2
06:03 50.6 °F 45.9 °F 29.92 in Calm     84% 0.00 in 9.0 W/m2
06:08 50.9 °F 45.9 °F 29.92 in Calm     83% 0.00 in 9.0 W/m2
06:13 51.2 °F 46.2 °F 29.93 in Calm     83% 0.00 in 12.0 W/m2
06:18 51.5 °F 46.2 °F 29.93 in Calm     82% 0.00 in 18.0 W/m2
06:23 51.5 °F 45.9 °F 29.93 in Calm     81% 0.00 in 26.0 W/m2
06:28 51.3 °F 45.7 °F 29.93 in Calm     81% 0.00 in 39.0 W/m2
06:33 51.3 °F 46.3 °F 29.92 in Calm     83% 0.00 in 56.0 W/m2
06:35 51.3 °F 46.3 °F 29.92 in Calm     83% 0.00 in 63.0 W/m2
06:40 51.9 °F 47.8 °F 29.93 in Calm     86% 0.00 in 74.0 W/m2
06:45 52.7 °F 48.6 °F 29.93 in Calm     86% 0.00 in 88.0 W/m2
06:50 54.0 °F 49.9 °F 29.94 in NE 9.2 mph 9.2 mph 86% 0.00 in 100.0 W/m2
06:55 54.3 °F 49.6 °F 29.94 in NNE 10.4 mph 10.4 mph 84% 0.00 in 120.0 W/m2
07:00 55.3 °F 49.6 °F 29.93 in ENE 4.6 mph 4.6 mph 81% 0.00 in 153.0 W/m2
07:05 56.2 °F 50.4 °F 29.94 in NNE 9.0 mph 9.0 mph 81% 0.00 in 195.0 W/m2
07:10 57.2 °F 50.7 °F 29.93 in Calm     79% 0.00 in 204.0 W/m2
07:11 57.3 °F 50.5 °F 29.94 in Calm     78% 0.00 in 206.0 W/m2
07:16 58.0 °F 50.5 °F 29.97 in NNW 11.5 mph 11.5 mph 76% 0.00 in 100.0 W/m2
07:21 58.3 °F 50.4 °F 29.96 in NNW 11.5 mph 11.5 mph 75% 0.00 in 216.0 W/m2
07:26 58.4 °F 49.4 °F 29.96 in NNW 8.1 mph 8.1 mph 72% 0.00 in 188.0 W/m2
07:31 58.8 °F 49.4 °F 29.97 in NNW 17.3 mph 17.3 mph 71% 0.00 in 135.0 W/m2
07:36 58.2 °F 49.6 °F 29.96 in North 5.8 mph 5.8 mph 73% 0.00 in 239.0 W/m2
07:41 58.7 °F 50.1 °F 29.97 in North 10.4 mph 10.4 mph 73% 0.00 in 267.0 W/m2
07:46 59.4 °F 50.0 °F 29.97 in North 11.5 mph 11.5 mph 71% 0.00 in 272.0 W/m2
07:51 60.0 °F 50.2 °F 29.97 in North 10.4 mph 10.4 mph 70% 0.00 in 348.0 W/m2
07:56 61.0 °F 50.0 °F 29.96 in NNW 11.5 mph 11.5 mph 67% 0.00 in 383.0 W/m2
08:01 61.6 °F 49.3 °F 29.96 in NNE 10.4 mph 10.4 mph 64% 0.00 in 171.0 W/m2
08:06 61.4 °F 48.7 °F 29.96 in NNE 8.1 mph 8.1 mph 63% 0.00 in 167.0 W/m2
08:11 61.5 °F 49.6 °F 29.95 in NE 6.9 mph 6.9 mph 65% 0.00 in 323.0 W/m2
08:16 62.2 °F 49.0 °F 29.95 in NNE 8.1 mph 8.1 mph 62% 0.00 in 373.0 W/m2
08:21 63.1 °F 49.4 °F 29.95 in NNE 8.1 mph 8.1 mph 61% 0.00 in 424.0 W/m2
08:26 63.8 °F 50.1 °F 29.95 in NNE 5.8 mph 5.8 mph 61% 0.00 in 232.0 W/m2
08:31 63.8 °F 49.6 °F 29.95 in North 8.1 mph 8.1 mph 60% 0.00 in 267.0 W/m2
08:36 64.2 °F 50.0 °F 29.94 in North 5.8 mph 5.8 mph 60% 0.00 in 364.0 W/m2
08:41 64.8 °F 49.7 °F 29.94 in NNE 8.1 mph 8.1 mph 58% 0.00 in 202.0 W/m2
08:46 64.4 °F 48.8 °F 29.94 in NNE 8.1 mph 8.1 mph 57% 0.00 in 186.0 W/m2
08:51 64.3 °F 49.2 °F 29.94 in NNE 6.9 mph 6.9 mph 58% 0.00 in 214.0 W/m2
08:56 64.5 °F 50.3 °F 29.94 in NE 3.5 mph 3.5 mph 60% 0.00 in 295.0 W/m2
09:01 65.0 °F 49.9 °F 29.94 in NE 5.8 mph 5.8 mph 58% 0.00 in 274.0 W/m2
09:06 65.2 °F 50.0 °F 29.94 in Calm     58% 0.00 in 218.0 W/m2
09:11 65.1 °F 50.0 °F 29.94 in NE 3.5 mph   58% 0.00 in 137.0 W/m2
09:16 64.8 °F 49.2 °F 29.94 in Calm     57% 0.00 in 105.0 W/m2
09:21 64.6 °F 49.5 °F 29.94 in Calm     58% 0.00 in 91.0 W/m2
09:26 64.3 °F 49.7 °F 29.94 in Calm     59% 0.00 in 90.0 W/m2
09:31 64.1 °F 50.4 °F 29.93 in Calm     61% 0.00 in 93.0 W/m2
09:36 63.7 °F 51.3 °F 29.95 in WSW 3.5 mph   64% 0.00 in 79.0 W/m2
09:41 63.5 °F 51.9 °F 29.95 in Calm     66% 0.00 in 72.0 W/m2
09:46 63.4 °F 52.2 °F 29.95 in Calm     67% 0.00 in 76.0 W/m2
09:51 63.2 °F 51.6 °F 29.95 in Calm     66% 0.00 in 83.0 W/m2
09:56 63.2 °F 52.9 °F 29.95 in Calm     69% 0.00 in 90.0 W/m2
10:01 63.1 °F 53.2 °F 29.95 in Calm     70% 0.00 in 84.0 W/m2
10:06 63.0 °F 52.7 °F 29.95 in Calm     69% 0.00 in 84.0 W/m2
10:11 62.9 °F 53.7 °F 29.95 in Calm     72% 0.00 in 105.0 W/m2
10:16 62.8 °F 52.9 °F 29.95 in Calm     70% 0.00 in 132.0 W/m2
10:21 62.9 °F 53.0 °F 29.95 in Calm     70% 0.00 in 155.0 W/m2
10:26 63.0 °F 52.7 °F 29.94 in Calm     69% 0.00 in 155.0 W/m2
10:31 63.2 °F 52.9 °F 29.94 in Calm     69% 0.00 in 155.0 W/m2
10:36 63.4 °F 53.0 °F 29.94 in Calm     69% 0.00 in 155.0 W/m2
10:41 63.6 °F 53.6 °F 29.94 in Calm     70% 0.00 in 144.0 W/m2
10:46 63.8 °F 53.4 °F 29.94 in Calm     69% 0.00 in 107.0 W/m2
10:51 63.8 °F 53.4 °F 29.94 in Calm     69% 0.00 in 88.0 W/m2
10:56 63.7 °F 54.1 °F 29.94 in Calm     71% 0.00 in 111.0 W/m2
11:01 63.6 °F 54.0 °F 29.94 in Calm     71% 0.00 in 142.0 W/m2
11:06 63.7 °F 54.9 °F 29.95 in Calm     73% 0.00 in 171.0 W/m2
11:11 63.8 °F 53.4 °F 29.94 in Calm     69% 0.00 in 200.0 W/m2
11:16 64.2 °F 54.2 °F 29.95 in Calm     70% 0.00 in 251.0 W/m2
11:21 64.7 °F 55.1 °F 29.94 in Calm     71% 0.00 in 327.0 W/m2
11:26 65.2 °F 55.6 °F 29.94 in Calm     71% 0.00 in 506.0 W/m2
11:31 65.7 °F 54.8 °F 29.94 in Calm     68% 0.00 in 322.0 W/m2
11:36 66.1 °F 54.8 °F 29.94 in Calm     67% 0.00 in 214.0 W/m2
11:41 66.5 °F 53.5 °F 29.94 in Calm     63% 0.00 in 197.0 W/m2
11:46 66.8 °F 54.7 °F 29.95 in Calm     65% 0.00 in 267.0 W/m2
11:51 67.1 °F 54.9 °F 29.95 in Calm     65% 0.00 in 260.0 W/m2
11:56 67.4 °F 55.2 °F 29.95 in Calm     65% 0.00 in 283.0 W/m2
12:01 67.7 °F 55.1 °F 29.95 in Calm     64% 0.00 in 332.0 W/m2
12:06 68.1 °F 55.5 °F 29.95 in NW 2.3 mph 2.3 mph 64% 0.00 in 355.0 W/m2
12:11 68.7 °F 56.0 °F 29.96 in West 3.5 mph 3.5 mph 64% 0.00 in 573.0 W/m2
12:16 69.3 °F 55.7 °F 29.95 in West 2.0 mph 2.0 mph 62% 0.00 in 650.0 W/m2
12:21 69.8 °F 55.3 °F 29.95 in WNW 3.5 mph 3.5 mph 60% 0.00 in 654.0 W/m2
12:26 70.2 °F 56.1 °F 29.96 in WNW 4.6 mph 4.6 mph 61% 0.00 in 789.0 W/m2
12:31 70.9 °F 55.9 °F 29.95 in WNW 10.4 mph 10.4 mph 59% 0.00 in 817.0 W/m2
12:36 71.6 °F 56.0 °F 29.95 in West 5.8 mph 5.8 mph 58% 0.00 in 923.0 W/m2
12:41 72.0 °F 56.9 °F 29.95 in NW 5.0 mph 5.0 mph 59% 0.00 in 916.0 W/m2
12:46 72.5 °F 56.4 °F 29.95 in WSW 4.6 mph 4.6 mph 57% 0.00 in 909.0 W/m2
12:51 73.0 °F 56.9 °F 29.95 in WNW 3.5 mph 3.5 mph 57% 0.00 in 905.0 W/m2
12:56 73.6 °F 57.4 °F 29.94 in South 4.6 mph 4.6 mph 57% 0.00 in 895.0 W/m2
13:01 74.1 °F 56.4 °F 29.94 in West 9.2 mph 9.2 mph 54% 0.00 in 896.0 W/m2
13:06 74.6 °F 56.3 °F 29.94 in WNW 5.8 mph 5.8 mph 53% 0.00 in 893.0 W/m2
13:11 75.4 °F 54.9 °F 29.94 in NW 5.0 mph 5.0 mph 49% 0.00 in 889.0 W/m2
13:16 75.7 °F 55.7 °F 29.94 in WNW 5.8 mph 5.8 mph 50% 0.00 in 898.0 W/m2
13:21 76.2 °F 56.2 °F 29.94 in NW 8.1 mph 8.1 mph 50% 0.00 in 912.0 W/m2
13:26 76.6 °F 54.9 °F 29.94 in North 7.0 mph 7.0 mph 47% 0.00 in 905.0 W/m2
13:31 77.1 °F 54.7 °F 29.94 in NW 11.5 mph 11.5 mph 46% 0.00 in 879.0 W/m2
13:36 77.0 °F 55.2 °F 29.94 in NW 6.9 mph 6.9 mph 47% 0.00 in 870.0 W/m2
13:42 77.0 °F 55.8 °F 29.94 in West 5.8 mph 5.8 mph 48% 0.00 in 896.0 W/m2
13:47 77.6 °F 55.8 °F 29.93 in NNE 10.4 mph 10.4 mph 47% 0.00 in 904.0 W/m2
13:52 78.1 °F 56.2 °F 29.94 in North 11.5 mph 11.5 mph 47% 0.00 in 939.0 W/m2
13:57 78.0 °F 55.5 °F 29.94 in North 5.0 mph 5.0 mph 46% 0.00 in 905.0 W/m2
14:02 77.9 °F 54.8 °F 29.94 in NNE 11.5 mph 11.5 mph 45% 0.00 in 879.0 W/m2
14:07 77.8 °F 54.8 °F 29.94 in NE 12.7 mph 12.7 mph 45% 0.00 in 914.0 W/m2
14:12 78.4 °F 55.3 °F 29.94 in NE 5.8 mph 5.8 mph 45% 0.00 in 953.0 W/m2
14:17 77.2 °F 52.3 °F 29.94 in NE 21.9 mph 21.9 mph 42% 0.00 in 137.0 W/m2
14:22 75.0 °F 52.8 °F 29.95 in NNE 19.6 mph 19.6 mph 46% 0.00 in 921.0 W/m2
14:27 73.9 °F 51.8 °F 29.95 in NE 17.3 mph 17.3 mph 46% 0.00 in 172.0 W/m2
14:32 74.3 °F 52.2 °F 29.95 in NE 17.3 mph 17.3 mph 46% 0.00 in 243.0 W/m2
14:37 73.8 °F 52.3 °F 29.95 in NE 18.4 mph 18.4 mph 47% 0.00 in 863.0 W/m2
14:42 73.9 °F 51.8 °F 29.95 in NE 18.4 mph 18.4 mph 46% 0.00 in 838.0 W/m2
14:47 73.9 °F 52.4 °F 29.96 in NE 17.3 mph 17.3 mph 47% 0.00 in 812.0 W/m2
14:52 74.0 °F 51.9 °F 29.96 in North 15.0 mph 15.0 mph 46% 0.00 in 689.0 W/m2
14:57 73.2 °F 51.2 °F 29.96 in NE 18.4 mph 18.4 mph 46% 0.00 in 784.0 W/m2
15:02 73.4 °F 51.4 °F 29.96 in NNE 17.3 mph 17.3 mph 46% 0.00 in 768.0 W/m2
15:07 72.9 °F 51.5 °F 29.96 in North 19.6 mph 19.6 mph 47% 0.00 in 758.0 W/m2
15:12 72.5 °F 51.1 °F 29.96 in NE 20.7 mph 20.7 mph 47% 0.00 in 751.0 W/m2
15:17 72.4 °F 51.0 °F 29.96 in NE 19.6 mph 19.6 mph 47% 0.00 in 737.0 W/m2
15:22 72.3 °F 51.5 °F 29.96 in NE 18.4 mph 18.4 mph 48% 0.00 in 728.0 W/m2
15:27 72.3 °F 50.9 °F 29.96 in NNE 18.4 mph 18.4 mph 47% 0.00 in 717.0 W/m2
15:32 72.2 °F 52.0 °F 29.96 in NNE 17.3 mph 17.3 mph 49% 0.00 in 710.0 W/m2
15:37 72.1 °F 51.3 °F 29.96 in NE 16.0 mph 16.0 mph 48% 0.00 in 693.0 W/m2
15:42 71.8 °F 50.5 °F 29.96 in NNE 13.8 mph 13.8 mph 47% 0.00 in 682.0 W/m2
15:47 71.8 °F 51.0 °F 29.96 in North 12.7 mph 12.7 mph 48% 0.00 in 671.0 W/m2
15:52 72.2 °F 51.4 °F 29.96 in NNE 18.4 mph 18.4 mph 48% 0.00 in 663.0 W/m2
15:57 72.3 °F 52.1 °F 29.96 in NE 17.0 mph 17.0 mph 49% 0.00 in 654.0 W/m2
16:02 72.4 °F 51.0 °F 29.96 in NNE 17.3 mph 17.3 mph 47% 0.00 in 643.0 W/m2
16:07 72.1 °F 50.8 °F 29.97 in North 18.4 mph 18.4 mph 47% 0.00 in 628.0 W/m2
16:12 72.0 °F 51.2 °F 29.97 in NNE 14.0 mph 14.0 mph 48% 0.00 in 536.0 W/m2
16:17 71.8 °F 51.0 °F 29.97 in NNE 19.6 mph 19.6 mph 48% 0.00 in 606.0 W/m2
16:22 71.3 °F 50.6 °F 29.97 in ENE 18.4 mph 18.4 mph 48% 0.00 in 591.0 W/m2
16:27 71.4 °F 50.7 °F 29.97 in NNE 18.4 mph 18.4 mph 48% 0.00 in 577.0 W/m2
16:32 71.5 °F 50.2 °F 29.98 in NNE 19.6 mph 19.6 mph 47% 0.00 in 561.0 W/m2
16:37 71.1 °F 49.8 °F 29.98 in NE 18.4 mph 18.4 mph 47% 0.00 in 550.0 W/m2
16:42 70.7 °F 49.5 °F 29.98 in NNE 19.6 mph 19.6 mph 47% 0.00 in 536.0 W/m2
16:47 70.1 °F 48.9 °F 29.98 in NNE 23.0 mph 23.0 mph 47% 0.00 in 522.0 W/m2
16:52 70.0 °F 48.8 °F 29.98 in NE 19.6 mph 19.6 mph 47% 0.00 in 506.0 W/m2
16:57 70.0 °F 48.8 °F 29.98 in NE 19.6 mph 19.6 mph 47% 0.00 in 494.0 W/m2
17:02 70.1 °F 48.4 °F 29.99 in NNE 18.4 mph 18.4 mph 46% 0.00 in 476.0 W/m2
17:07 69.8 °F 48.1 °F 29.99 in North 18.4 mph 18.4 mph 46% 0.00 in 461.0 W/m2
17:12 69.6 °F 47.9 °F 29.99 in NE 19.6 mph 19.6 mph 46% 0.00 in 445.0 W/m2
17:17 69.2 °F 47.5 °F 29.99 in NNE 19.6 mph 19.6 mph 46% 0.00 in 431.0 W/m2
17:22 68.9 °F 47.3 °F 29.99 in North 19.6 mph 19.6 mph 46% 0.00 in 415.0 W/m2
17:27 68.8 °F 47.2 °F 30.00 in NNE 19.6 mph 19.6 mph 46% 0.00 in 403.0 W/m2
17:32 68.5 °F 46.9 °F 30.00 in NE 15.0 mph 15.0 mph 46% 0.00 in 385.0 W/m2
17:37 68.2 °F 47.2 °F 30.00 in NNE 16.1 mph 16.1 mph 47% 0.00 in 371.0 W/m2
17:42 67.9 °F 46.9 °F 30.00 in NNE 16.1 mph 16.1 mph 47% 0.00 in 299.0 W/m2
17:47 67.4 °F 46.5 °F 30.00 in NNE 20.7 mph 20.7 mph 47% 0.00 in 163.0 W/m2
17:52 66.7 °F 46.9 °F 30.00 in NNE 13.8 mph 13.8 mph 49% 0.00 in 265.0 W/m2
17:57 66.6 °F 46.8 °F 30.00 in North 15.0 mph 15.0 mph 49% 0.00 in 318.0 W/m2
18:02 66.5 °F 46.2 °F 30.01 in NE 17.3 mph 17.3 mph 48% 0.00 in 297.0 W/m2
18:07 66.2 °F 46.5 °F 30.00 in NE 13.8 mph 13.8 mph 49% 0.00 in 276.0 W/m2
18:12 66.0 °F 46.3 °F 30.01 in NE 12.7 mph 12.7 mph 49% 0.00 in 255.0 W/m2
18:17 65.6 °F 45.4 °F 30.01 in NE 15.0 mph 15.0 mph 48% 0.00 in 236.0 W/m2
18:22 65.2 °F 45.0 °F 30.01 in NE 11.5 mph 11.5 mph 48% 0.00 in 216.0 W/m2
18:27 64.9 °F 45.3 °F 30.01 in NE 11.5 mph 11.5 mph 49% 0.00 in 195.0 W/m2
18:32 64.5 °F 45.4 °F 30.01 in NNE 10.4 mph 10.4 mph 50% 0.00 in 46.0 W/m2
18:37 64.0 °F 45.5 °F 30.02 in NE 13.8 mph 13.8 mph 51% 0.00 in 130.0 W/m2
18:42 63.6 °F 45.1 °F 30.02 in NNE 13.8 mph 13.8 mph 51% 0.00 in 37.0 W/m2
18:47 62.9 °F 44.5 °F 30.02 in NNE 15.0 mph 15.0 mph 51% 0.00 in 35.0 W/m2
18:52 62.3 °F 44.4 °F 30.02 in ENE 15.0 mph 15.0 mph 52% 0.00 in 33.0 W/m2
18:57 61.8 °F 44.0 °F 30.03 in NNE 13.8 mph 13.8 mph 52% 0.00 in 32.0 W/m2
19:02 61.2 °F 42.9 °F 30.03 in NNE 12.7 mph 12.7 mph 51% 0.00 in 30.0 W/m2
19:07 60.8 °F 42.5 °F 30.03 in NNE 11.5 mph 11.5 mph 51% 0.00 in 26.0 W/m2
19:12 60.3 °F 42.1 °F 30.04 in NNE 12.7 mph 12.7 mph 51% 0.00 in 25.0 W/m2
19:17 59.8 °F 41.6 °F 30.04 in North 17.3 mph 17.3 mph 51% 0.00 in 23.0 W/m2
19:22 59.4 °F 41.3 °F 30.04 in NE 10.4 mph 10.4 mph 51% 0.00 in 21.0 W/m2
19:27 59.1 °F 41.5 °F 30.04 in NE 11.5 mph 11.5 mph 52% 0.00 in 18.0 W/m2
19:32 58.6 °F 41.5 °F 30.04 in NE 7.0 mph 7.0 mph 53% 0.00 in 14.0 W/m2
19:37 57.9 °F 41.3 °F 30.04 in NNE 5.0 mph 5.0 mph 54% 0.00 in 12.0 W/m2
19:42 57.3 °F 41.3 °F 30.05 in NNE 8.1 mph 8.1 mph 55% 0.00 in 9.0 W/m2
19:47 56.9 °F 41.4 °F 30.05 in NNE 8.0 mph 8.0 mph 56% 0.00 in 5.0 W/m2
19:52 56.7 °F 41.6 °F 30.05 in NNE 8.1 mph 8.1 mph 57% 0.00 in 0.0 W/m2
19:57 56.4 °F 41.8 °F 30.05 in NNE 3.5 mph 3.5 mph 58% 0.00 in 0.0 W/m2
20:02 56.1 °F 42.0 °F 30.06 in Calm     59% 0.00 in 0.0 W/m2
20:07 55.8 °F 42.1 °F 30.06 in NNE 2.3 mph 2.3 mph 60% 0.00 in 0.0 W/m2
20:12 55.5 °F 42.7 °F 30.06 in NNE 3.5 mph   62% 0.00 in 0.0 W/m2
20:17 55.1 °F 42.3 °F 30.06 in Calm     62% 0.00 in 0.0 W/m2
20:22 54.6 °F 42.7 °F 30.07 in Calm     64% 0.00 in 0.0 W/m2
20:27 54.2 °F 42.7 °F 30.07 in Calm     65% 0.00 in 0.0 W/m2
20:32 53.9 °F 43.2 °F 30.07 in Calm     67% 0.00 in 0.0 W/m2
20:37 53.4 °F 43.1 °F 30.07 in Calm     68% 0.00 in 0.0 W/m2
20:42 53.2 °F 43.3 °F 30.08 in NNE 4.6 mph 4.6 mph 69% 0.00 in 0.0 W/m2
20:47 53.5 °F 43.6 °F 30.08 in NE 8.1 mph 8.1 mph 69% 0.00 in 0.0 W/m2
20:52 53.8 °F 43.9 °F 30.08 in NE 8.0 mph 8.0 mph 69% 0.00 in 0.0 W/m2
20:57 53.8 °F 43.9 °F 30.08 in North 5.8 mph 5.8 mph 69% 0.00 in 0.0 W/m2
21:02 53.6 °F 44.0 °F 30.09 in NNE 5.8 mph 5.8 mph 70% 0.00 in 0.0 W/m2
21:07 53.3 °F 44.1 °F 30.09 in NNE 3.5 mph 3.5 mph 71% 0.00 in 0.0 W/m2
21:12 52.8 °F 44.0 °F 30.09 in NNE 2.3 mph 2.3 mph 72% 0.00 in 0.0 W/m2
21:17 52.3 °F 43.9 °F 30.09 in NE 1.2 mph 1.2 mph 73% 0.00 in 0.0 W/m2
21:22 51.9 °F 43.9 °F 30.09 in NNE 3.5 mph 3.5 mph 74% 0.00 in 0.0 W/m2
21:27 51.5 °F 43.8 °F 30.09 in NNE 4.6 mph 4.6 mph 75% 0.00 in 0.0 W/m2
21:32 51.4 °F 43.7 °F 30.10 in NNE 5.8 mph 5.8 mph 75% 0.00 in 0.0 W/m2
21:37 51.4 °F 43.7 °F 30.10 in NNE 6.9 mph 6.9 mph 75% 0.00 in 0.0 W/m2
21:42 51.3 °F 43.6 °F 30.10 in NNE 3.5 mph 3.5 mph 75% 0.00 in 0.0 W/m2
21:43 51.3 °F 43.6 °F 30.10 in NNE 3.5 mph 3.5 mph 75% 0.00 in 0.0 W/m2
21:48 51.0 °F 43.4 °F 30.10 in NNE 4.6 mph 4.6 mph 75% 0.00 in 0.0 W/m2
21:53 50.9 °F 43.3 °F 30.10 in NNE 3.5 mph 3.5 mph 75% 0.00 in 0.0 W/m2
21:58 50.6 °F 43.3 °F 30.11 in Calm     76% 0.00 in 0.0 W/m2
22:03 50.3 °F 43.0 °F 30.11 in Calm     76% 0.00 in 0.0 W/m2
22:08 50.1 °F 43.2 °F 30.11 in NNE 4.6 mph 4.6 mph 77% 0.00 in 0.0 W/m2
22:13 50.0 °F 43.1 °F 30.11 in Calm     77% 0.00 in 0.0 W/m2
22:18 49.7 °F 42.8 °F 30.11 in Calm     77% 0.00 in 0.0 W/m2
22:23 49.3 °F 42.7 °F 30.11 in Calm     78% 0.00 in 0.0 W/m2
22:28 49.0 °F 42.8 °F 30.11 in Calm     79% 0.00 in 0.0 W/m2
22:33 48.9 °F 42.7 °F 30.12 in Calm     79% 0.00 in 0.0 W/m2
22:38 48.9 °F 43.0 °F 30.12 in Calm     80% 0.00 in 0.0 W/m2
22:43 48.9 °F 43.0 °F 30.12 in Calm     80% 0.00 in 0.0 W/m2
22:48 48.8 °F 42.9 °F 30.11 in Calm     80% 0.00 in 0.0 W/m2
22:53 48.6 °F 42.7 °F 30.12 in North 2.3 mph 2.3 mph 80% 0.00 in 0.0 W/m2
22:58 48.5 °F 42.6 °F 30.12 in North 3.5 mph 3.5 mph 80% 0.00 in 0.0 W/m2
23:03 48.7 °F 43.1 °F 30.12 in NNE 5.0 mph 5.0 mph 81% 0.00 in 0.0 W/m2
23:08 48.8 °F 42.9 °F 30.12 in North 3.5 mph 3.5 mph 80% 0.00 in 0.0 W/m2
23:13 48.7 °F 42.8 °F 30.13 in Calm     80% 0.00 in 0.0 W/m2
23:18 48.4 °F 42.5 °F 30.13 in Calm     80% 0.00 in 0.0 W/m2
23:23 48.1 °F 42.5 °F 30.13 in Calm     81% 0.00 in 0.0 W/m2
23:28 47.9 °F 42.3 °F 30.13 in Calm     81% 0.00 in 0.0 W/m2
23:33 47.8 °F 42.3 °F 30.13 in Calm     81% 0.00 in 0.0 W/m2
23:38 47.6 °F 42.4 °F 30.13 in Calm     82% 0.00 in 0.0 W/m2
23:43 47.3 °F 42.1 °F 30.13 in Calm     82% 0.00 in 0.0 W/m2
23:48 47.2 °F 42.0 °F 30.13 in Calm     82% 0.00 in 0.0 W/m2
23:53 46.9 °F 41.7 °F 30.13 in Calm     82% 0.00 in 0.0 W/m2
23:58 46.7 °F 41.8 °F 30.12 in Calm     83% 0.00 in 0.0 W/m2
Bourbonnais, Illinois, USA
Compliments of Weather Underground - 4 mb